Ceilidh 1 — KAYLEE — position and weather

sailwx.info

Track history (hours):
 
Tides and Currents Weather Stations Pressure Air Temp Water Temp Dewpoint Dewpoint Depression Visibility Wind Speed Wind Dir Waves Ship Positions

Ceilidh 1

Last reported at 2018-Jul-14 20:37 UTC. Time now 2018-Jul-16 12:35 UTC.
Position N 52°24' W 128°19'.

Length 14 m.

Type: Pleasure craft. MMSI: 316020137.

Date/timePositionNaut miles runAvg speedWind from/ knotsBaromVisibWave heightAir tempDewpointWater temp
2018-Jul-14 20:37N 52°24' W 128°19'  
2018-Jul-11 18:04N 52°06' W 128°07'1 6.7
2018-Jul-11 17:57N 52°06' W 128°07'7 0.2
2018-Jul-09 19:15N 52°02' W 127°56'3 6.7
2018-Jul-09 18:48N 51°59' W 127°57'2 6.6
2018-Jul-09 18:30N 51°57' W 127°57'4 6.5
2018-Jul-09 17:54N 51°53' W 127°58'3 7.1
2018-Jul-09 17:30N 51°50' W 127°58'3 7.0
2018-Jul-09 17:00N 51°47' W 127°59'3 0.2
2018-Jul-08 20:29N 51°44' W 127°60'3 6.9
2018-Jul-08 20:00N 51°41' W 127°58'2 4.5
2018-Jul-08 19:30N 51°39' W 128°01'4 7.1
2018-Jul-08 19:00N 51°39' W 128°06'1 0.0
2018-Jul-07 17:33N 51°39' W 128°08'0 0.9
2018-Jul-07 17:30N 51°39' W 128°08'3 5.7
2018-Jul-07 17:00N 51°39' W 128°03'4 7.4
2018-Jul-07 16:30N 51°39' W 127°57'3 6.2
2018-Jul-07 15:59N 51°38' W 127°52'1 0.0
2018-Jul-05 18:48N 51°39' W 127°50'1 4.5
2018-Jul-05 18:30N 51°37' W 127°49'3 5.9
2018-Jul-05 18:00N 51°35' W 127°49'3 6.7
2018-Jul-05 17:30N 51°31' W 127°48'3 5.0
2018-Jul-05 16:59N 51°30' W 127°44'1 0.0
2018-Jul-04 22:05N 51°30' W 127°43'0 6.5
2018-Jul-04 22:00N 51°31' W 127°43'  
Track history (hours):
 
Tides and Currents Weather Stations Pressure Air Temp Water Temp Dewpoint Dewpoint Depression Visibility Wind Speed Wind Dir Waves Ship Positions

Ceilidh 1

Last reported at 2018-Jul-14 20:37 UTC. Time now 2018-Jul-16 12:35 UTC.
Position N 52°24' W 128°19'.

Length 14 m.

Type: Pleasure craft. MMSI: 316020137.

Date/timePositionNaut miles runAvg speedWind from/ knotsBaromVisibWave heightAir tempDewpointWater temp
2018-Jul-14 20:37N 52°24' W 128°19'  
2018-Jul-11 18:04N 52°06' W 128°07'1 6.7
2018-Jul-11 17:57N 52°06' W 128°07'7 0.2
2018-Jul-09 19:15N 52°02' W 127°56'3 6.7
2018-Jul-09 18:48N 51°59' W 127°57'2 6.6
2018-Jul-09 18:30N 51°57' W 127°57'4 6.5
2018-Jul-09 17:54N 51°53' W 127°58'3 7.1
2018-Jul-09 17:30N 51°50' W 127°58'3 7.0
2018-Jul-09 17:00N 51°47' W 127°59'3 0.2
2018-Jul-08 20:29N 51°44' W 127°60'3 6.9
2018-Jul-08 20:00N 51°41' W 127°58'2 4.5
2018-Jul-08 19:30N 51°39' W 128°01'4 7.1
2018-Jul-08 19:00N 51°39' W 128°06'1 0.0
2018-Jul-07 17:33N 51°39' W 128°08'0 0.9
2018-Jul-07 17:30N 51°39' W 128°08'3 5.7
2018-Jul-07 17:00N 51°39' W 128°03'4 7.4
2018-Jul-07 16:30N 51°39' W 127°57'3 6.2
2018-Jul-07 15:59N 51°38' W 127°52'1 0.0
2018-Jul-05 18:48N 51°39' W 127°50'1 4.5
2018-Jul-05 18:30N 51°37' W 127°49'3 5.9
2018-Jul-05 18:00N 51°35' W 127°49'3 6.7
2018-Jul-05 17:30N 51°31' W 127°48'3 5.0
2018-Jul-05 16:59N 51°30' W 127°44'1 0.0
2018-Jul-04 22:05N 51°30' W 127°43'0 6.5
2018-Jul-04 22:00N 51°31' W 127°43'  

Dump ship's entire track history